sensor_id;sensor_type;location;lat;lon;timestamp;pressure;altitude;pressure_sealevel;temperature;humidity
15817;BME280;8009;50.070;8.232;2023-04-25T00:00:15;99357.03;;;9.73;80.88
15817;BME280;8009;50.070;8.232;2023-04-25T00:02:43;99360.81;;;9.82;79.49
15817;BME280;8009;50.070;8.232;2023-04-25T00:17:13;99357.47;;;8.90;84.23
15817;BME280;8009;50.070;8.232;2023-04-25T00:19:43;99358.16;;;9.48;82.02
15817;BME280;8009;50.070;8.232;2023-04-25T00:22:15;99359.28;;;9.35;82.41
15817;BME280;8009;50.070;8.232;2023-04-25T00:24:44;99364.63;;;9.57;82.34
15817;BME280;8009;50.070;8.232;2023-04-25T00:27:12;99358.00;;;9.72;80.98
15817;BME280;8009;50.070;8.232;2023-04-25T00:29:40;99361.84;;;9.47;81.79
15817;BME280;8009;50.070;8.232;2023-04-25T00:32:09;99368.25;;;9.35;82.45
15817;BME280;8009;50.070;8.232;2023-04-25T00:44:15;99345.72;;;9.80;81.19
15817;BME280;8009;50.070;8.232;2023-04-25T00:46:45;99342.09;;;10.01;79.11
15817;BME280;8009;50.070;8.232;2023-04-25T00:49:34;99332.63;;;9.20;84.03
15817;BME280;8009;50.070;8.232;2023-04-25T00:52:02;99335.78;;;8.92;85.15
15817;BME280;8009;50.070;8.232;2023-04-25T01:23:01;99331.06;;;10.05;78.95
15817;BME280;8009;50.070;8.232;2023-04-25T01:28:40;99343.06;;;10.12;79.67
15817;BME280;8009;50.070;8.232;2023-04-25T01:31:09;99338.38;;;10.14;79.49
15817;BME280;8009;50.070;8.232;2023-04-25T01:33:38;99336.47;;;10.05;79.57
15817;BME280;8009;50.070;8.232;2023-04-25T01:36:06;99335.16;;;9.88;79.72
15817;BME280;8009;50.070;8.232;2023-04-25T01:38:37;99331.28;;;9.81;81.43
15817;BME280;8009;50.070;8.232;2023-04-25T01:53:52;99341.00;;;9.61;80.81
15817;BME280;8009;50.070;8.232;2023-04-25T01:56:20;99344.25;;;9.21;80.29
15817;BME280;8009;50.070;8.232;2023-04-25T01:58:49;99359.13;;;8.69;82.83
15817;BME280;8009;50.070;8.232;2023-04-25T02:01:17;99344.72;;;8.81;83.06
15817;BME280;8009;50.070;8.232;2023-04-25T02:03:45;99334.69;;;9.28;78.55
15817;BME280;8009;50.070;8.232;2023-04-25T02:06:16;99337.97;;;9.54;78.64
15817;BME280;8009;50.070;8.232;2023-04-25T02:08:44;99343.16;;;9.12;79.41
15817;BME280;8009;50.070;8.232;2023-04-25T02:11:15;99349.41;;;9.01;80.45
15817;BME280;8009;50.070;8.232;2023-04-25T02:17:05;99342.50;;;9.42;79.74
15817;BME280;8009;50.070;8.232;2023-04-25T02:19:35;99347.91;;;8.86;82.70
15817;BME280;8009;50.070;8.232;2023-04-25T02:22:04;99344.13;;;9.00;81.38
15817;BME280;8009;50.070;8.232;2023-04-25T02:25:00;99346.69;;;9.24;79.52
15817;BME280;8009;50.070;8.232;2023-04-25T02:34:16;99346.03;;;8.53;82.98
15817;BME280;8009;50.070;8.232;2023-04-25T02:49:32;99331.50;;;9.12;81.29
15817;BME280;8009;50.070;8.232;2023-04-25T02:52:00;99334.19;;;9.12;78.77
15817;BME280;8009;50.070;8.232;2023-04-25T02:54:29;99330.66;;;9.22;79.66
15817;BME280;8009;50.070;8.232;2023-04-25T03:06:51;99343.88;;;9.25;77.86
15817;BME280;8009;50.070;8.232;2023-04-25T03:09:20;99346.38;;;8.48;76.43
15817;BME280;8009;50.070;8.232;2023-04-25T03:11:48;99353.59;;;8.48;77.73
15817;BME280;8009;50.070;8.232;2023-04-25T03:14:17;99346.44;;;8.82;76.47
15817;BME280;8009;50.070;8.232;2023-04-25T03:16:46;99348.72;;;8.53;76.04
15817;BME280;8009;50.070;8.232;2023-04-25T03:19:37;99341.91;;;8.83;76.24
15817;BME280;8009;50.070;8.232;2023-04-25T03:22:13;99353.69;;;8.46;75.48
15817;BME280;8009;50.070;8.232;2023-04-25T03:24:42;99347.72;;;8.19;76.40
15817;BME280;8009;50.070;8.232;2023-04-25T03:27:10;99346.28;;;8.26;75.82
15817;BME280;8009;50.070;8.232;2023-04-25T03:29:41;99341.81;;;8.38;74.71
15817;BME280;8009;50.070;8.232;2023-04-25T03:32:09;99337.69;;;8.45;76.57
15817;BME280;8009;50.070;8.232;2023-04-25T03:34:37;99334.00;;;8.46;77.14
15817;BME280;8009;50.070;8.232;2023-04-25T03:43:36;99328.22;;;8.86;75.54
15817;BME280;8009;50.070;8.232;2023-04-25T03:46:04;99326.84;;;8.69;78.01
15817;BME280;8009;50.070;8.232;2023-04-25T03:48:33;99345.88;;;8.54;78.63
15817;BME280;8009;50.070;8.232;2023-04-25T03:51:23;99349.19;;;8.58;77.21
15817;BME280;8009;50.070;8.232;2023-04-25T04:15:27;99377.06;;;7.87;74.83
15817;BME280;8009;50.070;8.232;2023-04-25T04:17:58;99376.69;;;7.67;75.48
15817;BME280;8009;50.070;8.232;2023-04-25T04:27:21;99385.34;;;7.84;75.49
15817;BME280;8009;50.070;8.232;2023-04-25T04:29:49;99398.81;;;7.71;75.00
15817;BME280;8009;50.070;8.232;2023-04-25T04:32:21;99400.75;;;7.69;73.47
15817;BME280;8009;50.070;8.232;2023-04-25T04:34:50;99400.88;;;7.67;75.26
15817;BME280;8009;50.070;8.232;2023-04-25T04:37:20;99408.81;;;7.69;74.22
15817;BME280;8009;50.070;8.232;2023-04-25T04:39:49;99401.34;;;7.85;72.69
15817;BME280;8009;50.070;8.232;2023-04-25T04:42:34;99409.13;;;8.25;70.71
15817;BME280;8009;50.070;8.232;2023-04-25T04:45:03;99401.06;;;8.01;71.57
15817;BME280;8009;50.070;8.232;2023-04-25T04:47:34;99402.69;;;7.67;73.06
15817;BME280;8009;50.070;8.232;2023-04-25T04:56:49;99397.00;;;7.58;73.45
15817;BME280;8009;50.070;8.232;2023-04-25T04:59:17;99393.63;;;7.80;71.00
15817;BME280;8009;50.070;8.232;2023-04-25T05:01:46;99399.31;;;7.52;71.95
15817;BME280;8009;50.070;8.232;2023-04-25T05:10:51;99405.91;;;7.72;70.41
15817;BME280;8009;50.070;8.232;2023-04-25T05:19:40;99421.31;;;7.94;72.26
15817;BME280;8009;50.070;8.232;2023-04-25T05:22:09;99437.22;;;7.60;70.84
15817;BME280;8009;50.070;8.232;2023-04-25T05:24:37;99434.91;;;7.30;73.02
15817;BME280;8009;50.070;8.232;2023-04-25T05:27:08;99437.44;;;7.57;70.77
15817;BME280;8009;50.070;8.232;2023-04-25T05:29:36;99433.56;;;7.61;70.92
15817;BME280;8009;50.070;8.232;2023-04-25T05:32:12;99428.03;;;7.75;70.84
15817;BME280;8009;50.070;8.232;2023-04-25T05:38:08;99448.53;;;7.40;71.60
15817;BME280;8009;50.070;8.232;2023-04-25T05:40:36;99444.75;;;7.92;69.35
15817;BME280;8009;50.070;8.232;2023-04-25T05:43:07;99441.19;;;7.67;70.52
15817;BME280;8009;50.070;8.232;2023-04-25T05:45:35;99441.16;;;7.80;71.20
15817;BME280;8009;50.070;8.232;2023-04-25T05:48:04;99445.50;;;7.57;71.46
15817;BME280;8009;50.070;8.232;2023-04-25T05:50:32;99440.50;;;7.76;72.61
15817;BME280;8009;50.070;8.232;2023-04-25T05:53:01;99447.28;;;8.06;72.26
15817;BME280;8009;50.070;8.232;2023-04-25T05:55:31;99449.41;;;7.77;70.35
15817;BME280;8009;50.070;8.232;2023-04-25T05:57:59;99461.72;;;8.29;70.94
15817;BME280;8009;50.070;8.232;2023-04-25T06:00:30;99455.19;;;8.68;68.32
15817;BME280;8009;50.070;8.232;2023-04-25T06:02:59;99459.81;;;8.18;68.72
15817;BME280;8009;50.070;8.232;2023-04-25T06:05:27;99461.47;;;8.91;69.91
15817;BME280;8009;50.070;8.232;2023-04-25T06:07:55;99462.81;;;7.90;69.87
15817;BME280;8009;50.070;8.232;2023-04-25T06:10:24;99467.81;;;8.31;69.65
15817;BME280;8009;50.070;8.232;2023-04-25T06:12:52;99461.09;;;8.01;71.72
15817;BME280;8009;50.070;8.232;2023-04-25T06:15:20;99464.88;;;8.71;69.74
15817;BME280;8009;50.070;8.232;2023-04-25T06:17:51;99457.56;;;8.12;69.70
15817;BME280;8009;50.070;8.232;2023-04-25T06:20:20;99465.84;;;7.85;70.25
15817;BME280;8009;50.070;8.232;2023-04-25T06:22:50;99457.06;;;8.07;69.63
15817;BME280;8009;50.070;8.232;2023-04-25T06:25:18;99459.06;;;8.16;68.99
15817;BME280;8009;50.070;8.232;2023-04-25T06:27:46;99465.84;;;8.22;68.95
15817;BME280;8009;50.070;8.232;2023-04-25T06:30:15;99472.63;;;8.87;68.14
15817;BME280;8009;50.070;8.232;2023-04-25T06:32:47;99476.03;;;8.53;66.95
15817;BME280;8009;50.070;8.232;2023-04-25T06:35:18;99479.88;;;8.38;68.34
15817;BME280;8009;50.070;8.232;2023-04-25T06:37:47;99479.13;;;8.60;65.07
15817;BME280;8009;50.070;8.232;2023-04-25T06:40:15;99485.38;;;8.61;68.19
15817;BME280;8009;50.070;8.232;2023-04-25T06:42:43;99482.72;;;9.18;67.34
15817;BME280;8009;50.070;8.232;2023-04-25T06:45:12;99481.22;;;9.03;66.63
15817;BME280;8009;50.070;8.232;2023-04-25T06:47:40;99472.97;;;9.73;65.10
15817;BME280;8009;50.070;8.232;2023-04-25T06:50:09;99478.34;;;9.73;64.08
15817;BME280;8009;50.070;8.232;2023-04-25T06:52:40;99478.91;;;9.10;67.64
15817;BME280;8009;50.070;8.232;2023-04-25T06:55:09;99486.41;;;9.28;64.29
15817;BME280;8009;50.070;8.232;2023-04-25T06:57:37;99483.44;;;9.99;62.46
15817;BME280;8009;50.070;8.232;2023-04-25T07:00:07;99493.59;;;9.06;65.85
15817;BME280;8009;50.070;8.232;2023-04-25T07:02:36;99492.78;;;9.50;65.64
15817;BME280;8009;50.070;8.232;2023-04-25T07:05:06;99486.53;;;9.83;65.09
15817;BME280;8009;50.070;8.232;2023-04-25T07:07:34;99495.00;;;9.45;66.29
15817;BME280;8009;50.070;8.232;2023-04-25T07:10:06;99489.47;;;9.58;64.66
15817;BME280;8009;50.070;8.232;2023-04-25T07:12:34;99488.28;;;9.62;64.65
15817;BME280;8009;50.070;8.232;2023-04-25T07:15:03;99495.50;;;9.39;64.45
15817;BME280;8009;50.070;8.232;2023-04-25T07:17:33;99493.63;;;9.17;65.11
15817;BME280;8009;50.070;8.232;2023-04-25T07:20:02;99493.09;;;9.12;64.34
15817;BME280;8009;50.070;8.232;2023-04-25T07:22:31;99490.59;;;9.55;63.55
15817;BME280;8009;50.070;8.232;2023-04-25T07:24:59;99499.06;;;9.73;63.73
15817;BME280;8009;50.070;8.232;2023-04-25T07:27:31;99495.59;;;9.37;63.74
15817;BME280;8009;50.070;8.232;2023-04-25T07:30:00;99495.72;;;9.24;64.14
15817;BME280;8009;50.070;8.232;2023-04-25T07:32:29;99498.41;;;9.24;62.43
15817;BME280;8009;50.070;8.232;2023-04-25T07:34:57;99498.47;;;9.12;63.01
15817;BME280;8009;50.070;8.232;2023-04-25T07:37:27;99502.47;;;9.41;63.89
15817;BME280;8009;50.070;8.232;2023-04-25T07:39:55;99491.69;;;9.41;64.82
15817;BME280;8009;50.070;8.232;2023-04-25T07:42:23;99501.72;;;9.28;65.12
15817;BME280;8009;50.070;8.232;2023-04-25T07:44:54;99495.38;;;9.40;62.77
15817;BME280;8009;50.070;8.232;2023-04-25T07:47:22;99497.06;;;9.97;63.43
15817;BME280;8009;50.070;8.232;2023-04-25T07:49:51;99507.13;;;9.39;60.84
15817;BME280;8009;50.070;8.232;2023-04-25T07:52:19;99518.53;;;9.43;61.15
15817;BME280;8009;50.070;8.232;2023-04-25T07:54:47;99502.97;;;9.35;61.89
15817;BME280;8009;50.070;8.232;2023-04-25T07:57:16;99514.44;;;9.26;62.03
15817;BME280;8009;50.070;8.232;2023-04-25T07:59:45;99508.09;;;9.94;62.04
15817;BME280;8009;50.070;8.232;2023-04-25T08:02:16;99513.00;;;9.44;61.26
15817;BME280;8009;50.070;8.232;2023-04-25T08:04:45;99518.66;;;9.52;61.12
15817;BME280;8009;50.070;8.232;2023-04-25T08:07:14;99513.75;;;9.46;59.90
15817;BME280;8009;50.070;8.232;2023-04-25T08:09:43;99521.97;;;9.56;60.85
15817;BME280;8009;50.070;8.232;2023-04-25T08:12:11;99523.69;;;9.91;58.84
15817;BME280;8009;50.070;8.232;2023-04-25T08:14:39;99538.72;;;9.37;60.23
15817;BME280;8009;50.070;8.232;2023-04-25T08:17:08;99529.44;;;9.97;60.15
15817;BME280;8009;50.070;8.232;2023-04-25T08:19:39;99530.19;;;9.55;60.54
15817;BME280;8009;50.070;8.232;2023-04-25T08:22:07;99534.84;;;9.86;59.67
15817;BME280;8009;50.070;8.232;2023-04-25T08:24:35;99537.16;;;10.13;60.34
15817;BME280;8009;50.070;8.232;2023-04-25T08:27:04;99538.16;;;10.01;59.47
15817;BME280;8009;50.070;8.232;2023-04-25T08:29:33;99549.16;;;10.09;55.89
15817;BME280;8009;50.070;8.232;2023-04-25T08:32:01;99559.69;;;10.23;57.27
15817;BME280;8009;50.070;8.232;2023-04-25T08:34:30;99577.50;;;10.04;56.59
15817;BME280;8009;50.070;8.232;2023-04-25T08:37:00;99569.28;;;10.16;58.71
15817;BME280;8009;50.070;8.232;2023-04-25T08:39:29;99562.53;;;10.11;55.73
15817;BME280;8009;50.070;8.232;2023-04-25T08:41:58;99571.84;;;10.18;56.96
15817;BME280;8009;50.070;8.232;2023-04-25T08:44:26;99565.81;;;10.14;56.16
15817;BME280;8009;50.070;8.232;2023-04-25T08:46:55;99569.66;;;9.78;58.84
15817;BME280;8009;50.070;8.232;2023-04-25T08:49:25;99577.50;;;10.04;57.73
15817;BME280;8009;50.070;8.232;2023-04-25T08:51:56;99573.38;;;10.77;55.32
15817;BME280;8009;50.070;8.232;2023-04-25T08:54:30;99578.97;;;10.30;56.17
15817;BME280;8009;50.070;8.232;2023-04-25T08:57:01;99580.31;;;10.24;59.59
15817;BME280;8009;50.070;8.232;2023-04-25T08:59:30;99583.50;;;10.41;56.66
15817;BME280;8009;50.070;8.232;2023-04-25T09:01:59;99582.16;;;10.46;55.83
15817;BME280;8009;50.070;8.232;2023-04-25T09:04:29;99596.84;;;9.75;56.86
15817;BME280;8009;50.070;8.232;2023-04-25T09:06:58;99600.34;;;9.53;58.28
15817;BME280;8009;50.070;8.232;2023-04-25T09:09:26;99597.94;;;9.72;57.69
15817;BME280;8009;50.070;8.232;2023-04-25T09:11:58;99610.59;;;10.17;56.70
15817;BME280;8009;50.070;8.232;2023-04-25T09:14:27;99611.34;;;10.08;58.69
15817;BME280;8009;50.070;8.232;2023-04-25T09:17:03;99603.81;;;10.67;56.88
15817;BME280;8009;50.070;8.232;2023-04-25T09:19:34;99607.75;;;10.18;58.17
15817;BME280;8009;50.070;8.232;2023-04-25T09:22:06;99608.91;;;10.49;55.34
15817;BME280;8009;50.070;8.232;2023-04-25T09:24:37;99620.78;;;10.24;55.18
15817;BME280;8009;50.070;8.232;2023-04-25T09:27:10;99599.91;;;10.60;56.25
15817;BME280;8009;50.070;8.232;2023-04-25T09:29:39;99610.81;;;10.70;55.78
15817;BME280;8009;50.070;8.232;2023-04-25T09:32:11;99610.34;;;10.65;56.04
15817;BME280;8009;50.070;8.232;2023-04-25T09:34:41;99618.28;;;11.10;55.71
15817;BME280;8009;50.070;8.232;2023-04-25T09:37:10;99624.47;;;10.57;54.19
15817;BME280;8009;50.070;8.232;2023-04-25T09:39:39;99643.38;;;10.35;55.59
15817;BME280;8009;50.070;8.232;2023-04-25T09:42:10;99634.69;;;10.86;55.06
15817;BME280;8009;50.070;8.232;2023-04-25T09:44:42;99628.84;;;10.81;55.50
15817;BME280;8009;50.070;8.232;2023-04-25T09:47:11;99645.72;;;10.39;55.14
15817;BME280;8009;50.070;8.232;2023-04-25T09:49:41;99648.84;;;10.78;56.99
15817;BME280;8009;50.070;8.232;2023-04-25T09:52:13;99655.75;;;10.26;56.87
15817;BME280;8009;50.070;8.232;2023-04-25T09:54:42;99655.41;;;10.31;54.96
15817;BME280;8009;50.070;8.232;2023-04-25T09:57:16;99650.81;;;10.76;54.75
15817;BME280;8009;50.070;8.232;2023-04-25T09:59:46;99648.69;;;10.80;54.02
15817;BME280;8009;50.070;8.232;2023-04-25T10:02:16;99662.28;;;11.01;55.07
15817;BME280;8009;50.070;8.232;2023-04-25T10:04:48;99650.53;;;11.55;53.62
15817;BME280;8009;50.070;8.232;2023-04-25T10:07:20;99662.97;;;11.14;55.02
15817;BME280;8009;50.070;8.232;2023-04-25T10:09:55;99652.56;;;11.09;54.63
15817;BME280;8009;50.070;8.232;2023-04-25T10:12:28;99655.63;;;11.37;52.25
15817;BME280;8009;50.070;8.232;2023-04-25T10:14:58;99661.41;;;10.34;56.00
15817;BME280;8009;50.070;8.232;2023-04-25T10:17:26;99667.16;;;10.52;53.15
15817;BME280;8009;50.070;8.232;2023-04-25T10:19:55;99673.03;;;10.23;54.42
15817;BME280;8009;50.070;8.232;2023-04-25T10:22:31;99672.94;;;10.47;53.40
15817;BME280;8009;50.070;8.232;2023-04-25T10:25:01;99668.84;;;10.76;52.52
15817;BME280;8009;50.070;8.232;2023-04-25T10:27:34;99662.31;;;10.89;55.67
15817;BME280;8009;50.070;8.232;2023-04-25T10:30:04;99666.41;;;10.84;53.48
15817;BME280;8009;50.070;8.232;2023-04-25T10:32:35;99671.81;;;10.72;53.11
15817;BME280;8009;50.070;8.232;2023-04-25T10:35:11;99674.31;;;10.42;52.84
15817;BME280;8009;50.070;8.232;2023-04-25T10:37:59;99677.97;;;10.41;51.53
15817;BME280;8009;50.070;8.232;2023-04-25T10:40:28;99675.16;;;10.54;51.71
15817;BME280;8009;50.070;8.232;2023-04-25T10:43:38;99679.81;;;10.52;53.52
15817;BME280;8009;50.070;8.232;2023-04-25T10:46:19;99684.59;;;10.59;51.20
15817;BME280;8009;50.070;8.232;2023-04-25T10:48:51;99684.19;;;10.30;52.32
15817;BME280;8009;50.070;8.232;2023-04-25T10:51:22;99684.34;;;10.51;52.73
15817;BME280;8009;50.070;8.232;2023-04-25T10:53:58;99682.59;;;10.84;50.69
15817;BME280;8009;50.070;8.232;2023-04-25T10:56:27;99691.44;;;10.52;52.13
15817;BME280;8009;50.070;8.232;2023-04-25T10:59:09;99687.09;;;10.94;51.32
15817;BME280;8009;50.070;8.232;2023-04-25T11:01:40;99695.50;;;10.80;49.17
15817;BME280;8009;50.070;8.232;2023-04-25T11:04:21;99681.44;;;10.97;52.03
15817;BME280;8009;50.070;8.232;2023-04-25T11:07:06;99680.75;;;10.95;51.35
15817;BME280;8009;50.070;8.232;2023-04-25T11:09:39;99689.34;;;10.78;53.07
15817;BME280;8009;50.070;8.232;2023-04-25T11:12:08;99703.63;;;10.69;50.92
15817;BME280;8009;50.070;8.232;2023-04-25T11:14:40;99696.59;;;10.78;51.20
15817;BME280;8009;50.070;8.232;2023-04-25T11:17:09;99700.50;;;10.96;51.00
15817;BME280;8009;50.070;8.232;2023-04-25T11:19:37;99713.66;;;10.44;51.95
15817;BME280;8009;50.070;8.232;2023-04-25T11:22:05;99701.41;;;10.63;51.14
15817;BME280;8009;50.070;8.232;2023-04-25T11:24:35;99695.09;;;10.96;54.08
15817;BME280;8009;50.070;8.232;2023-04-25T11:27:04;99701.75;;;10.92;53.93
15817;BME280;8009;50.070;8.232;2023-04-25T11:29:34;99702.56;;;11.04;50.92
15817;BME280;8009;50.070;8.232;2023-04-25T11:32:05;99700.03;;;11.34;49.47
15817;BME280;8009;50.070;8.232;2023-04-25T11:34:34;99713.50;;;10.80;50.99
15817;BME280;8009;50.070;8.232;2023-04-25T11:37:02;99710.66;;;11.15;49.37
15817;BME280;8009;50.070;8.232;2023-04-25T11:39:31;99717.16;;;11.44;48.93
15817;BME280;8009;50.070;8.232;2023-04-25T11:42:00;99727.91;;;10.91;49.67
15817;BME280;8009;50.070;8.232;2023-04-25T11:44:29;99724.84;;;10.51;50.34
15817;BME280;8009;50.070;8.232;2023-04-25T11:46:58;99725.69;;;10.74;49.92
15817;BME280;8009;50.070;8.232;2023-04-25T11:49:32;99723.00;;;10.74;51.49
15817;BME280;8009;50.070;8.232;2023-04-25T11:52:01;99724.06;;;10.94;50.28
15817;BME280;8009;50.070;8.232;2023-04-25T11:54:29;99721.25;;;11.07;49.51
15817;BME280;8009;50.070;8.232;2023-04-25T11:56:57;99723.38;;;10.58;48.65
15817;BME280;8009;50.070;8.232;2023-04-25T11:59:26;99731.94;;;10.86;49.23
15817;BME280;8009;50.070;8.232;2023-04-25T12:01:55;99714.56;;;11.22;49.49
15817;BME280;8009;50.070;8.232;2023-04-25T12:04:24;99727.38;;;10.86;50.25
15817;BME280;8009;50.070;8.232;2023-04-25T12:06:55;99716.75;;;11.28;46.62
15817;BME280;8009;50.070;8.232;2023-04-25T12:09:29;99711.63;;;11.57;48.02
15817;BME280;8009;50.070;8.232;2023-04-25T12:11:59;99708.75;;;11.59;46.05
15817;BME280;8009;50.070;8.232;2023-04-25T12:14:32;99702.44;;;11.69;47.33
15817;BME280;8009;50.070;8.232;2023-04-25T12:17:02;99702.22;;;11.93;44.81
15817;BME280;8009;50.070;8.232;2023-04-25T12:19:35;99697.28;;;11.99;46.20
15817;BME280;8009;50.070;8.232;2023-04-25T12:22:19;99703.75;;;11.75;45.88
15817;BME280;8009;50.070;8.232;2023-04-25T12:24:47;99704.72;;;12.27;44.70
15817;BME280;8009;50.070;8.232;2023-04-25T12:27:17;99694.97;;;12.46;44.35
15817;BME280;8009;50.070;8.232;2023-04-25T12:29:51;99691.63;;;12.32;50.36
15817;BME280;8009;50.070;8.232;2023-04-25T12:32:20;99713.56;;;12.08;46.74
15817;BME280;8009;50.070;8.232;2023-04-25T12:34:48;99720.25;;;11.83;45.31
15817;BME280;8009;50.070;8.232;2023-04-25T12:37:19;99724.13;;;11.26;55.42
15817;BME280;8009;50.070;8.232;2023-04-25T12:39:47;99728.31;;;11.19;49.80
15817;BME280;8009;50.070;8.232;2023-04-25T12:42:16;99740.50;;;11.57;48.29
15817;BME280;8009;50.070;8.232;2023-04-25T12:44:44;99736.06;;;11.56;48.28
15817;BME280;8009;50.070;8.232;2023-04-25T12:47:12;99740.72;;;11.21;47.70
15817;BME280;8009;50.070;8.232;2023-04-25T12:49:41;99745.78;;;11.15;48.06
15817;BME280;8009;50.070;8.232;2023-04-25T12:52:11;99739.72;;;11.34;47.72
15817;BME280;8009;50.070;8.232;2023-04-25T12:54:42;99746.41;;;11.07;48.17
15817;BME280;8009;50.070;8.232;2023-04-25T12:57:11;99754.31;;;10.77;48.58
15817;BME280;8009;50.070;8.232;2023-04-25T12:59:39;99747.94;;;11.32;50.57
15817;BME280;8009;50.070;8.232;2023-04-25T13:02:07;99748.19;;;11.29;49.79
15817;BME280;8009;50.070;8.232;2023-04-25T13:04:36;99743.88;;;11.38;47.52
15817;BME280;8009;50.070;8.232;2023-04-25T13:07:04;99750.69;;;11.64;45.23
15817;BME280;8009;50.070;8.232;2023-04-25T13:09:33;99740.81;;;11.63;47.26
15817;BME280;8009;50.070;8.232;2023-04-25T13:12:04;99743.09;;;12.11;46.29
15817;BME280;8009;50.070;8.232;2023-04-25T13:14:33;99742.06;;;11.59;49.01
15817;BME280;8009;50.070;8.232;2023-04-25T13:17:01;99737.09;;;11.76;46.08
15817;BME280;8009;50.070;8.232;2023-04-25T13:19:30;99745.78;;;11.58;48.32
15817;BME280;8009;50.070;8.232;2023-04-25T13:21:58;99747.41;;;11.50;44.56
15817;BME280;8009;50.070;8.232;2023-04-25T13:24:29;99748.97;;;11.52;45.99
15817;BME280;8009;50.070;8.232;2023-04-25T13:26:57;99755.53;;;11.50;44.77
15817;BME280;8009;50.070;8.232;2023-04-25T13:29:29;99753.44;;;11.74;46.09
15817;BME280;8009;50.070;8.232;2023-04-25T13:32:00;99746.56;;;11.70;44.42
15817;BME280;8009;50.070;8.232;2023-04-25T13:34:28;99745.53;;;11.61;46.56
15817;BME280;8009;50.070;8.232;2023-04-25T13:36:56;99748.66;;;11.45;46.77
15817;BME280;8009;50.070;8.232;2023-04-25T13:39:25;99748.47;;;11.90;46.40
15817;BME280;8009;50.070;8.232;2023-04-25T13:41:54;99749.09;;;12.15;46.07
15817;BME280;8009;50.070;8.232;2023-04-25T13:44:22;99749.97;;;11.94;46.62
15817;BME280;8009;50.070;8.232;2023-04-25T13:46:53;99755.44;;;11.83;46.01
15817;BME280;8009;50.070;8.232;2023-04-25T13:49:21;99761.78;;;11.07;46.35
15817;BME280;8009;50.070;8.232;2023-04-25T13:51:50;99752.97;;;12.01;46.35
15817;BME280;8009;50.070;8.232;2023-04-25T13:54:18;99765.09;;;11.86;45.96
15817;BME280;8009;50.070;8.232;2023-04-25T13:56:46;99763.66;;;11.38;47.08
15817;BME280;8009;50.070;8.232;2023-04-25T13:59:15;99767.81;;;11.42;46.24
15817;BME280;8009;50.070;8.232;2023-04-25T14:01:44;99766.22;;;11.40;53.85
15817;BME280;8009;50.070;8.232;2023-04-25T14:04:15;99773.13;;;11.33;44.55
15817;BME280;8009;50.070;8.232;2023-04-25T14:06:43;99777.84;;;11.52;44.38
15817;BME280;8009;50.070;8.232;2023-04-25T14:09:11;99780.88;;;11.37;44.20
15817;BME280;8009;50.070;8.232;2023-04-25T14:11:40;99787.97;;;11.50;43.09
15817;BME280;8009;50.070;8.232;2023-04-25T14:14:09;99790.56;;;11.29;43.84
15817;BME280;8009;50.070;8.232;2023-04-25T14:16:38;99772.09;;;11.56;42.98
15817;BME280;8009;50.070;8.232;2023-04-25T14:19:07;99777.81;;;11.63;42.00
15817;BME280;8009;50.070;8.232;2023-04-25T14:21:38;99778.13;;;11.92;42.75
15817;BME280;8009;50.070;8.232;2023-04-25T14:24:06;99776.72;;;11.65;43.36
15817;BME280;8009;50.070;8.232;2023-04-25T14:26:36;99772.66;;;11.60;44.93
15817;BME280;8009;50.070;8.232;2023-04-25T14:29:05;99770.41;;;11.33;43.20
15817;BME280;8009;50.070;8.232;2023-04-25T14:31:34;99778.22;;;11.58;42.89
15817;BME280;8009;50.070;8.232;2023-04-25T14:34:04;99777.81;;;11.63;48.24
15817;BME280;8009;50.070;8.232;2023-04-25T14:36:33;99781.41;;;11.09;47.27
15817;BME280;8009;50.070;8.232;2023-04-25T14:39:04;99784.59;;;11.03;45.93
15817;BME280;8009;50.070;8.232;2023-04-25T14:41:33;99790.06;;;11.46;43.82
15817;BME280;8009;50.070;8.232;2023-04-25T14:44:02;99797.63;;;11.09;44.79
15817;BME280;8009;50.070;8.232;2023-04-25T14:46:31;99796.19;;;11.37;42.58
15817;BME280;8009;50.070;8.232;2023-04-25T14:48:59;99801.91;;;11.22;44.60
15817;BME280;8009;50.070;8.232;2023-04-25T14:51:28;99798.19;;;11.35;45.76
15817;BME280;8009;50.070;8.232;2023-04-25T14:53:56;99801.41;;;11.17;44.49
15817;BME280;8009;50.070;8.232;2023-04-25T14:56:27;99795.38;;;11.14;44.72
15817;BME280;8009;50.070;8.232;2023-04-25T14:58:56;99802.41;;;11.16;44.53
15817;BME280;8009;50.070;8.232;2023-04-25T15:01:24;99798.19;;;11.35;45.49
15817;BME280;8009;50.070;8.232;2023-04-25T15:03:52;99793.38;;;11.82;42.92
15817;BME280;8009;50.070;8.232;2023-04-25T15:06:21;99790.38;;;11.64;45.66
15817;BME280;8009;50.070;8.232;2023-04-25T15:08:51;99794.63;;;11.78;46.84
15817;BME280;8009;50.070;8.232;2023-04-25T15:11:20;99804.28;;;11.48;45.14
15817;BME280;8009;50.070;8.232;2023-04-25T15:13:51;99800.63;;;11.49;44.97
15817;BME280;8009;50.070;8.232;2023-04-25T15:16:20;99808.56;;;11.18;43.68
15817;BME280;8009;50.070;8.232;2023-04-25T15:18:48;99811.88;;;11.00;43.60
15817;BME280;8009;50.070;8.232;2023-04-25T15:21:16;99809.41;;;11.08;43.43
15817;BME280;8009;50.070;8.232;2023-04-25T15:23:45;99816.75;;;11.06;43.42
15817;BME280;8009;50.070;8.232;2023-04-25T15:26:14;99796.53;;;11.55;41.85
15817;BME280;8009;50.070;8.232;2023-04-25T15:28:42;99804.75;;;11.64;48.33
15817;BME280;8009;50.070;8.232;2023-04-25T15:31:13;99804.16;;;11.61;42.33
15817;BME280;8009;50.070;8.232;2023-04-25T15:33:41;99809.00;;;11.35;42.76
15817;BME280;8009;50.070;8.232;2023-04-25T15:36:10;99807.94;;;11.26;41.27
15817;BME280;8009;50.070;8.232;2023-04-25T15:38:38;99812.81;;;11.21;42.84
15817;BME280;8009;50.070;8.232;2023-04-25T15:41:06;99812.34;;;11.27;40.83
15817;BME280;8009;50.070;8.232;2023-04-25T15:43:35;99808.16;;;11.23;40.33
15817;BME280;8009;50.070;8.232;2023-04-25T15:46:04;99807.91;;;11.37;41.62
15817;BME280;8009;50.070;8.232;2023-04-25T15:48:35;99809.63;;;11.38;43.71
15817;BME280;8009;50.070;8.232;2023-04-25T15:51:04;99809.78;;;11.69;38.91
15817;BME280;8009;50.070;8.232;2023-04-25T15:53:32;99813.81;;;11.75;41.21
15817;BME280;8009;50.070;8.232;2023-04-25T15:56:00;99810.59;;;11.49;41.74
15817;BME280;8009;50.070;8.232;2023-04-25T15:58:29;99806.03;;;11.49;40.11
15817;BME280;8009;50.070;8.232;2023-04-25T16:00:57;99801.53;;;11.27;42.48
15817;BME280;8009;50.070;8.232;2023-04-25T16:03:25;99808.41;;;11.75;39.97
15817;BME280;8009;50.070;8.232;2023-04-25T16:05:56;99805.19;;;11.92;39.63